sensor_id;sensor_type;location;lat;lon;timestamp;P1;durP1;ratioP1;P2;durP2;ratioP2
18125;SDS011;53956;52.442;13.284;2022-08-21T00:00:03;9.50;;;6.90;;
18125;SDS011;53956;52.442;13.284;2022-08-21T00:02:37;9.50;;;7.00;;
18125;SDS011;53956;52.442;13.284;2022-08-21T00:05:12;8.43;;;6.70;;
18125;SDS011;53956;52.442;13.284;2022-08-21T00:07:38;10.18;;;7.20;;
18125;SDS011;53956;52.442;13.284;2022-08-21T00:10:07;8.32;;;7.00;;
18125;SDS011;53956;52.442;13.284;2022-08-21T00:12:34;9.80;;;7.20;;
18125;SDS011;53956;52.442;13.284;2022-08-21T00:15:01;8.52;;;6.97;;
18125;SDS011;53956;52.442;13.284;2022-08-21T00:17:28;8.93;;;7.05;;
18125;SDS011;53956;52.442;13.284;2022-08-21T00:19:55;10.00;;;7.38;;
18125;SDS011;53956;52.442;13.284;2022-08-21T00:22:21;8.40;;;7.20;;
18125;SDS011;53956;52.442;13.284;2022-08-21T00:24:49;10.32;;;7.18;;
18125;SDS011;53956;52.442;13.284;2022-08-21T00:27:16;11.63;;;7.78;;
18125;SDS011;53956;52.442;13.284;2022-08-21T00:29:43;9.38;;;7.40;;
18125;SDS011;53956;52.442;13.284;2022-08-21T00:32:09;10.38;;;7.47;;
18125;SDS011;53956;52.442;13.284;2022-08-21T00:34:36;9.65;;;7.10;;
18125;SDS011;53956;52.442;13.284;2022-08-21T00:37:02;9.85;;;7.45;;
18125;SDS011;53956;52.442;13.284;2022-08-21T00:39:29;8.00;;;7.03;;
18125;SDS011;53956;52.442;13.284;2022-08-21T00:41:57;9.25;;;6.93;;
18125;SDS011;53956;52.442;13.284;2022-08-21T00:44:24;10.98;;;7.13;;
18125;SDS011;53956;52.442;13.284;2022-08-21T00:46:50;9.00;;;7.20;;
18125;SDS011;53956;52.442;13.284;2022-08-21T00:49:17;8.98;;;7.13;;
18125;SDS011;53956;52.442;13.284;2022-08-21T00:51:45;8.68;;;7.20;;
18125;SDS011;53956;52.442;13.284;2022-08-21T00:54:17;8.00;;;7.20;;
18125;SDS011;53956;52.442;13.284;2022-08-21T00:56:45;11.27;;;7.55;;
18125;SDS011;53956;52.442;13.284;2022-08-21T00:59:15;8.23;;;7.32;;
18125;SDS011;53956;52.442;13.284;2022-08-21T01:01:42;9.15;;;7.15;;
18125;SDS011;53956;52.442;13.284;2022-08-21T01:04:09;11.43;;;6.85;;
18125;SDS011;53956;52.442;13.284;2022-08-21T01:06:35;8.50;;;6.00;;
18125;SDS011;53956;52.442;13.284;2022-08-21T01:09:02;9.55;;;7.13;;
18125;SDS011;53956;52.442;13.284;2022-08-21T01:11:29;10.93;;;7.15;;
18125;SDS011;53956;52.442;13.284;2022-08-21T01:13:56;9.32;;;6.40;;
18125;SDS011;53956;52.442;13.284;2022-08-21T01:16:24;9.02;;;6.85;;
18125;SDS011;53956;52.442;13.284;2022-08-21T01:18:51;8.82;;;6.82;;
18125;SDS011;53956;52.442;13.284;2022-08-21T01:21:20;9.00;;;6.95;;
18125;SDS011;53956;52.442;13.284;2022-08-21T01:23:49;11.00;;;7.20;;
18125;SDS011;53956;52.442;13.284;2022-08-21T01:26:18;9.55;;;7.70;;
18125;SDS011;53956;52.442;13.284;2022-08-21T01:28:50;11.10;;;7.72;;
18125;SDS011;53956;52.442;13.284;2022-08-21T01:31:23;10.93;;;7.28;;
18125;SDS011;53956;52.442;13.284;2022-08-21T01:33:51;12.10;;;7.63;;
18125;SDS011;53956;52.442;13.284;2022-08-21T01:36:21;10.38;;;7.40;;
18125;SDS011;53956;52.442;13.284;2022-08-21T01:38:48;8.20;;;7.40;;
18125;SDS011;53956;52.442;13.284;2022-08-21T01:41:15;9.57;;;7.68;;
18125;SDS011;53956;52.442;13.284;2022-08-21T01:43:42;10.70;;;7.85;;
18125;SDS011;53956;52.442;13.284;2022-08-21T01:46:10;12.05;;;7.70;;
18125;SDS011;53956;52.442;13.284;2022-08-21T01:48:38;11.63;;;8.00;;
18125;SDS011;53956;52.442;13.284;2022-08-21T01:51:05;10.32;;;7.53;;
18125;SDS011;53956;52.442;13.284;2022-08-21T01:53:33;11.45;;;7.55;;
18125;SDS011;53956;52.442;13.284;2022-08-21T01:56:02;11.40;;;7.85;;
18125;SDS011;53956;52.442;13.284;2022-08-21T01:58:30;9.60;;;7.15;;
18125;SDS011;53956;52.442;13.284;2022-08-21T02:00:58;10.95;;;7.03;;
18125;SDS011;53956;52.442;13.284;2022-08-21T02:03:26;9.25;;;7.18;;
18125;SDS011;53956;52.442;13.284;2022-08-21T02:05:53;8.48;;;6.85;;
18125;SDS011;53956;52.442;13.284;2022-08-21T02:08:20;11.65;;;6.90;;
18125;SDS011;53956;52.442;13.284;2022-08-21T02:10:49;8.02;;;6.82;;
18125;SDS011;53956;52.442;13.284;2022-08-21T02:13:17;8.98;;;6.93;;
18125;SDS011;53956;52.442;13.284;2022-08-21T02:15:44;7.43;;;6.63;;
18125;SDS011;53956;52.442;13.284;2022-08-21T02:18:11;9.00;;;6.38;;
18125;SDS011;53956;52.442;13.284;2022-08-21T02:20:39;9.13;;;6.70;;
18125;SDS011;53956;52.442;13.284;2022-08-21T02:23:07;12.18;;;6.28;;
18125;SDS011;53956;52.442;13.284;2022-08-21T02:25:36;9.52;;;6.97;;
18125;SDS011;53956;52.442;13.284;2022-08-21T02:28:05;10.20;;;6.35;;
18125;SDS011;53956;52.442;13.284;2022-08-21T02:30:35;11.25;;;6.38;;
18125;SDS011;53956;52.442;13.284;2022-08-21T02:33:03;8.20;;;6.00;;
18125;SDS011;53956;52.442;13.284;2022-08-21T02:35:30;8.15;;;6.10;;
18125;SDS011;53956;52.442;13.284;2022-08-21T02:37:58;9.07;;;6.45;;
18125;SDS011;53956;52.442;13.284;2022-08-21T02:40:28;8.50;;;6.15;;
18125;SDS011;53956;52.442;13.284;2022-08-21T02:42:56;8.20;;;5.95;;
18125;SDS011;53956;52.442;13.284;2022-08-21T02:45:24;10.38;;;5.78;;
18125;SDS011;53956;52.442;13.284;2022-08-21T02:47:55;7.95;;;5.80;;
18125;SDS011;53956;52.442;13.284;2022-08-21T02:50:24;6.97;;;5.50;;
18125;SDS011;53956;52.442;13.284;2022-08-21T02:52:52;7.85;;;5.53;;
18125;SDS011;53956;52.442;13.284;2022-08-21T02:55:19;7.72;;;5.75;;
18125;SDS011;53956;52.442;13.284;2022-08-21T02:57:46;10.52;;;6.03;;
18125;SDS011;53956;52.442;13.284;2022-08-21T03:00:14;8.10;;;5.10;;
18125;SDS011;53956;52.442;13.284;2022-08-21T03:02:42;6.93;;;5.00;;
18125;SDS011;53956;52.442;13.284;2022-08-21T03:05:11;6.38;;;4.90;;
18125;SDS011;53956;52.442;13.284;2022-08-21T03:07:40;9.93;;;5.32;;
18125;SDS011;53956;52.442;13.284;2022-08-21T03:10:07;7.80;;;4.80;;
18125;SDS011;53956;52.442;13.284;2022-08-21T03:12:35;11.88;;;4.60;;
18125;SDS011;53956;52.442;13.284;2022-08-21T03:15:02;9.48;;;4.82;;
18125;SDS011;53956;52.442;13.284;2022-08-21T03:17:30;7.50;;;4.25;;
18125;SDS011;53956;52.442;13.284;2022-08-21T03:19:58;7.05;;;4.45;;
18125;SDS011;53956;52.442;13.284;2022-08-21T03:22:25;8.50;;;4.75;;
18125;SDS011;53956;52.442;13.284;2022-08-21T03:24:52;6.28;;;4.28;;
18125;SDS011;53956;52.442;13.284;2022-08-21T03:27:19;8.48;;;4.50;;
18125;SDS011;53956;52.442;13.284;2022-08-21T03:29:46;6.82;;;4.70;;
18125;SDS011;53956;52.442;13.284;2022-08-21T03:32:12;7.43;;;4.60;;
18125;SDS011;53956;52.442;13.284;2022-08-21T03:34:39;6.03;;;4.07;;
18125;SDS011;53956;52.442;13.284;2022-08-21T03:37:08;6.50;;;4.38;;
18125;SDS011;53956;52.442;13.284;2022-08-21T03:39:36;6.82;;;4.80;;
18125;SDS011;53956;52.442;13.284;2022-08-21T03:42:02;7.68;;;4.32;;
18125;SDS011;53956;52.442;13.284;2022-08-21T03:44:30;8.77;;;4.45;;
18125;SDS011;53956;52.442;13.284;2022-08-21T03:46:57;5.82;;;4.38;;
18125;SDS011;53956;52.442;13.284;2022-08-21T03:49:24;7.40;;;4.63;;
18125;SDS011;53956;52.442;13.284;2022-08-21T03:51:51;7.85;;;4.40;;
18125;SDS011;53956;52.442;13.284;2022-08-21T03:54:19;7.70;;;4.55;;
18125;SDS011;53956;52.442;13.284;2022-08-21T03:56:46;7.20;;;4.45;;
18125;SDS011;53956;52.442;13.284;2022-08-21T03:59:13;5.57;;;4.60;;
18125;SDS011;53956;52.442;13.284;2022-08-21T04:01:39;9.32;;;4.50;;
18125;SDS011;53956;52.442;13.284;2022-08-21T04:04:16;7.10;;;5.05;;
18125;SDS011;53956;52.442;13.284;2022-08-21T04:06:42;7.93;;;4.47;;
18125;SDS011;53956;52.442;13.284;2022-08-21T04:09:09;5.80;;;4.47;;
18125;SDS011;53956;52.442;13.284;2022-08-21T04:11:37;9.45;;;4.68;;
18125;SDS011;53956;52.442;13.284;2022-08-21T04:14:04;8.57;;;4.15;;
18125;SDS011;53956;52.442;13.284;2022-08-21T04:16:30;7.75;;;4.60;;
18125;SDS011;53956;52.442;13.284;2022-08-21T04:18:57;7.68;;;4.30;;
18125;SDS011;53956;52.442;13.284;2022-08-21T04:21:23;9.73;;;4.07;;
18125;SDS011;53956;52.442;13.284;2022-08-21T04:23:50;6.28;;;4.05;;
18125;SDS011;53956;52.442;13.284;2022-08-21T04:26:19;9.43;;;4.07;;
18125;SDS011;53956;52.442;13.284;2022-08-21T04:28:47;8.82;;;4.75;;
18125;SDS011;53956;52.442;13.284;2022-08-21T04:31:14;9.35;;;4.22;;
18125;SDS011;53956;52.442;13.284;2022-08-21T04:33:41;9.80;;;4.85;;
18125;SDS011;53956;52.442;13.284;2022-08-21T04:36:07;6.43;;;4.32;;
18125;SDS011;53956;52.442;13.284;2022-08-21T04:38:34;6.13;;;3.70;;
18125;SDS011;53956;52.442;13.284;2022-08-21T04:41:01;5.45;;;4.10;;
18125;SDS011;53956;52.442;13.284;2022-08-21T04:43:29;6.13;;;4.10;;
18125;SDS011;53956;52.442;13.284;2022-08-21T04:45:57;5.13;;;3.88;;
18125;SDS011;53956;52.442;13.284;2022-08-21T04:48:25;8.73;;;3.97;;
18125;SDS011;53956;52.442;13.284;2022-08-21T04:50:53;5.97;;;3.92;;
18125;SDS011;53956;52.442;13.284;2022-08-21T04:53:24;8.07;;;4.55;;
18125;SDS011;53956;52.442;13.284;2022-08-21T04:56:04;5.60;;;3.90;;
18125;SDS011;53956;52.442;13.284;2022-08-21T04:58:34;7.35;;;4.13;;
18125;SDS011;53956;52.442;13.284;2022-08-21T05:01:04;8.20;;;4.15;;
18125;SDS011;53956;52.442;13.284;2022-08-21T05:03:34;7.65;;;4.18;;
18125;SDS011;53956;52.442;13.284;2022-08-21T05:06:02;7.97;;;3.78;;
18125;SDS011;53956;52.442;13.284;2022-08-21T05:08:30;8.25;;;4.10;;
18125;SDS011;53956;52.442;13.284;2022-08-21T05:10:57;8.82;;;4.40;;
18125;SDS011;53956;52.442;13.284;2022-08-21T05:13:24;11.18;;;4.18;;
18125;SDS011;53956;52.442;13.284;2022-08-21T05:15:51;7.43;;;4.20;;
18125;SDS011;53956;52.442;13.284;2022-08-21T05:18:19;8.98;;;4.70;;
18125;SDS011;53956;52.442;13.284;2022-08-21T05:20:46;9.10;;;4.40;;
18125;SDS011;53956;52.442;13.284;2022-08-21T05:23:13;8.40;;;4.32;;
18125;SDS011;53956;52.442;13.284;2022-08-21T05:25:40;9.05;;;4.20;;
18125;SDS011;53956;52.442;13.284;2022-08-21T05:28:08;7.82;;;4.22;;
18125;SDS011;53956;52.442;13.284;2022-08-21T05:30:36;5.60;;;4.10;;
18125;SDS011;53956;52.442;13.284;2022-08-21T05:33:04;7.53;;;3.70;;
18125;SDS011;53956;52.442;13.284;2022-08-21T05:35:33;10.82;;;3.90;;
18125;SDS011;53956;52.442;13.284;2022-08-21T05:38:00;7.60;;;4.07;;
18125;SDS011;53956;52.442;13.284;2022-08-21T05:40:27;9.18;;;4.03;;
18125;SDS011;53956;52.442;13.284;2022-08-21T05:42:54;6.85;;;3.53;;
18125;SDS011;53956;52.442;13.284;2022-08-21T05:45:22;6.50;;;3.95;;
18125;SDS011;53956;52.442;13.284;2022-08-21T05:47:50;7.18;;;3.78;;
18125;SDS011;53956;52.442;13.284;2022-08-21T05:50:16;8.60;;;4.10;;
18125;SDS011;53956;52.442;13.284;2022-08-21T05:52:44;8.02;;;4.10;;
18125;SDS011;53956;52.442;13.284;2022-08-21T05:55:11;4.68;;;3.30;;
18125;SDS011;53956;52.442;13.284;2022-08-21T05:57:38;9.35;;;3.83;;
18125;SDS011;53956;52.442;13.284;2022-08-21T06:00:06;7.82;;;4.22;;
18125;SDS011;53956;52.442;13.284;2022-08-21T06:02:38;9.00;;;4.03;;
18125;SDS011;53956;52.442;13.284;2022-08-21T06:05:04;10.45;;;4.35;;
18125;SDS011;53956;52.442;13.284;2022-08-21T06:07:31;8.85;;;3.25;;
18125;SDS011;53956;52.442;13.284;2022-08-21T06:10:00;8.30;;;3.58;;
18125;SDS011;53956;52.442;13.284;2022-08-21T06:12:27;7.28;;;3.40;;
18125;SDS011;53956;52.442;13.284;2022-08-21T06:14:53;7.75;;;3.65;;
18125;SDS011;53956;52.442;13.284;2022-08-21T06:17:20;5.38;;;3.30;;
18125;SDS011;53956;52.442;13.284;2022-08-21T06:19:50;9.77;;;3.75;;
18125;SDS011;53956;52.442;13.284;2022-08-21T06:22:17;8.80;;;3.38;;
18125;SDS011;53956;52.442;13.284;2022-08-21T06:24:44;5.72;;;3.15;;
18125;SDS011;53956;52.442;13.284;2022-08-21T06:27:12;6.97;;;3.17;;
18125;SDS011;53956;52.442;13.284;2022-08-21T06:29:38;6.85;;;3.10;;
18125;SDS011;53956;52.442;13.284;2022-08-21T06:32:05;9.82;;;3.38;;
18125;SDS011;53956;52.442;13.284;2022-08-21T06:34:35;7.05;;;3.20;;
18125;SDS011;53956;52.442;13.284;2022-08-21T06:37:03;6.75;;;3.45;;
18125;SDS011;53956;52.442;13.284;2022-08-21T06:39:30;6.93;;;3.08;;
18125;SDS011;53956;52.442;13.284;2022-08-21T06:41:57;6.57;;;3.10;;
18125;SDS011;53956;52.442;13.284;2022-08-21T06:44:28;10.10;;;2.90;;
18125;SDS011;53956;52.442;13.284;2022-08-21T06:46:55;9.27;;;2.83;;
18125;SDS011;53956;52.442;13.284;2022-08-21T06:49:22;7.53;;;3.13;;
18125;SDS011;53956;52.442;13.284;2022-08-21T06:51:48;10.13;;;3.45;;
18125;SDS011;53956;52.442;13.284;2022-08-21T06:54:15;8.18;;;3.00;;
18125;SDS011;53956;52.442;13.284;2022-08-21T06:56:42;7.68;;;2.83;;
18125;SDS011;53956;52.442;13.284;2022-08-21T06:59:09;5.45;;;2.53;;
18125;SDS011;53956;52.442;13.284;2022-08-21T07:01:37;6.65;;;3.08;;
18125;SDS011;53956;52.442;13.284;2022-08-21T07:04:12;7.95;;;2.63;;
18125;SDS011;53956;52.442;13.284;2022-08-21T07:06:38;7.22;;;2.70;;
18125;SDS011;53956;52.442;13.284;2022-08-21T07:09:05;5.07;;;2.50;;
18125;SDS011;53956;52.442;13.284;2022-08-21T07:11:32;6.70;;;2.53;;
18125;SDS011;53956;52.442;13.284;2022-08-21T07:13:58;4.45;;;2.45;;
18125;SDS011;53956;52.442;13.284;2022-08-21T07:16:25;7.72;;;2.65;;
18125;SDS011;53956;52.442;13.284;2022-08-21T07:18:51;5.68;;;2.42;;
18125;SDS011;53956;52.442;13.284;2022-08-21T07:21:19;6.85;;;2.40;;
18125;SDS011;53956;52.442;13.284;2022-08-21T07:23:47;6.05;;;2.38;;
18125;SDS011;53956;52.442;13.284;2022-08-21T07:26:16;7.28;;;2.28;;
18125;SDS011;53956;52.442;13.284;2022-08-21T07:28:45;7.88;;;2.50;;
18125;SDS011;53956;52.442;13.284;2022-08-21T07:31:13;4.85;;;2.55;;
18125;SDS011;53956;52.442;13.284;2022-08-21T07:33:41;5.15;;;2.38;;
18125;SDS011;53956;52.442;13.284;2022-08-21T07:36:08;7.70;;;2.30;;
18125;SDS011;53956;52.442;13.284;2022-08-21T07:38:37;7.05;;;2.15;;
18125;SDS011;53956;52.442;13.284;2022-08-21T07:41:06;6.93;;;2.50;;
18125;SDS011;53956;52.442;13.284;2022-08-21T07:43:40;7.43;;;2.45;;
18125;SDS011;53956;52.442;13.284;2022-08-21T07:46:07;6.10;;;2.00;;
18125;SDS011;53956;52.442;13.284;2022-08-21T07:48:34;6.32;;;2.35;;
18125;SDS011;53956;52.442;13.284;2022-08-21T07:51:02;5.30;;;2.00;;
18125;SDS011;53956;52.442;13.284;2022-08-21T07:53:32;4.13;;;1.85;;
18125;SDS011;53956;52.442;13.284;2022-08-21T07:56:00;4.10;;;1.90;;
18125;SDS011;53956;52.442;13.284;2022-08-21T07:58:27;4.13;;;1.83;;
18125;SDS011;53956;52.442;13.284;2022-08-21T08:00:53;5.55;;;2.22;;
18125;SDS011;53956;52.442;13.284;2022-08-21T08:03:20;6.47;;;1.88;;
18125;SDS011;53956;52.442;13.284;2022-08-21T08:05:47;5.45;;;1.90;;
18125;SDS011;53956;52.442;13.284;2022-08-21T08:08:13;6.28;;;2.03;;
18125;SDS011;53956;52.442;13.284;2022-08-21T08:10:40;4.20;;;1.50;;
18125;SDS011;53956;52.442;13.284;2022-08-21T08:13:08;4.20;;;1.88;;
18125;SDS011;53956;52.442;13.284;2022-08-21T08:15:35;5.00;;;1.77;;
18125;SDS011;53956;52.442;13.284;2022-08-21T08:18:02;6.22;;;2.15;;
18125;SDS011;53956;52.442;13.284;2022-08-21T08:20:29;5.15;;;1.88;;
18125;SDS011;53956;52.442;13.284;2022-08-21T08:22:56;7.13;;;2.10;;
18125;SDS011;53956;52.442;13.284;2022-08-21T08:25:23;4.13;;;1.70;;
18125;SDS011;53956;52.442;13.284;2022-08-21T08:27:51;4.82;;;1.80;;
18125;SDS011;53956;52.442;13.284;2022-08-21T08:30:19;5.03;;;1.77;;
18125;SDS011;53956;52.442;13.284;2022-08-21T08:32:47;6.07;;;1.80;;
18125;SDS011;53956;52.442;13.284;2022-08-21T08:35:15;5.07;;;1.90;;
18125;SDS011;53956;52.442;13.284;2022-08-21T08:37:42;4.85;;;1.90;;
18125;SDS011;53956;52.442;13.284;2022-08-21T08:40:11;6.78;;;1.90;;
18125;SDS011;53956;52.442;13.284;2022-08-21T08:42:40;3.20;;;1.83;;
18125;SDS011;53956;52.442;13.284;2022-08-21T08:45:08;4.68;;;1.92;;
18125;SDS011;53956;52.442;13.284;2022-08-21T08:47:38;7.57;;;2.30;;
18125;SDS011;53956;52.442;13.284;2022-08-21T08:50:10;7.00;;;2.20;;
18125;SDS011;53956;52.442;13.284;2022-08-21T08:52:43;4.95;;;1.85;;
18125;SDS011;53956;52.442;13.284;2022-08-21T08:55:15;5.75;;;2.00;;
18125;SDS011;53956;52.442;13.284;2022-08-21T08:57:46;5.25;;;1.98;;
18125;SDS011;53956;52.442;13.284;2022-08-21T09:00:16;7.93;;;2.30;;
18125;SDS011;53956;52.442;13.284;2022-08-21T09:02:46;6.95;;;2.20;;
18125;SDS011;53956;52.442;13.284;2022-08-21T09:05:18;5.88;;;2.05;;
18125;SDS011;53956;52.442;13.284;2022-08-21T09:07:51;5.47;;;2.10;;
18125;SDS011;53956;52.442;13.284;2022-08-21T09:10:30;6.80;;;2.55;;
18125;SDS011;53956;52.442;13.284;2022-08-21T09:13:06;5.68;;;2.20;;
18125;SDS011;53956;52.442;13.284;2022-08-21T09:15:42;6.32;;;2.10;;
18125;SDS011;53956;52.442;13.284;2022-08-21T09:18:25;6.80;;;2.17;;
18125;SDS011;53956;52.442;13.284;2022-08-21T09:21:02;4.07;;;1.80;;
18125;SDS011;53956;52.442;13.284;2022-08-21T09:23:40;6.03;;;2.20;;
18125;SDS011;53956;52.442;13.284;2022-08-21T09:26:17;7.80;;;2.30;;
18125;SDS011;53956;52.442;13.284;2022-08-21T09:28:45;5.63;;;2.05;;
18125;SDS011;53956;52.442;13.284;2022-08-21T09:31:21;6.55;;;2.00;;
18125;SDS011;53956;52.442;13.284;2022-08-21T09:33:50;5.70;;;2.28;;
18125;SDS011;53956;52.442;13.284;2022-08-21T09:36:24;6.55;;;2.00;;
18125;SDS011;53956;52.442;13.284;2022-08-21T09:38:55;7.97;;;2.38;;
18125;SDS011;53956;52.442;13.284;2022-08-21T09:41:26;8.48;;;2.10;;
18125;SDS011;53956;52.442;13.284;2022-08-21T09:43:56;6.38;;;1.80;;
18125;SDS011;53956;52.442;13.284;2022-08-21T09:46:24;7.63;;;2.25;;
18125;SDS011;53956;52.442;13.284;2022-08-21T09:48:54;7.78;;;2.20;;
18125;SDS011;53956;52.442;13.284;2022-08-21T09:51:23;7.30;;;2.55;;
18125;SDS011;53956;52.442;13.284;2022-08-21T09:53:52;7.90;;;2.22;;
18125;SDS011;53956;52.442;13.284;2022-08-21T09:56:26;6.25;;;2.15;;
18125;SDS011;53956;52.442;13.284;2022-08-21T09:59:14;5.82;;;2.20;;
18125;SDS011;53956;52.442;13.284;2022-08-21T10:01:44;3.38;;;1.80;;
18125;SDS011;53956;52.442;13.284;2022-08-21T10:04:14;5.22;;;1.80;;
18125;SDS011;53956;52.442;13.284;2022-08-21T10:06:45;4.80;;;1.70;;
18125;SDS011;53956;52.442;13.284;2022-08-21T10:09:12;5.50;;;2.00;;
18125;SDS011;53956;52.442;13.284;2022-08-21T10:11:42;4.30;;;1.80;;
18125;SDS011;53956;52.442;13.284;2022-08-21T10:14:16;8.15;;;1.75;;
18125;SDS011;53956;52.442;13.284;2022-08-21T10:16:52;5.47;;;2.00;;
18125;SDS011;53956;52.442;13.284;2022-08-21T10:19:30;5.65;;;1.95;;
18125;SDS011;53956;52.442;13.284;2022-08-21T10:22:05;7.20;;;1.80;;
18125;SDS011;53956;52.442;13.284;2022-08-21T10:24:40;4.45;;;1.55;;
18125;SDS011;53956;52.442;13.284;2022-08-21T10:27:15;5.70;;;1.63;;
18125;SDS011;53956;52.442;13.284;2022-08-21T10:29:50;10.93;;;1.92;;
18125;SDS011;53956;52.442;13.284;2022-08-21T10:32:25;5.43;;;1.70;;
18125;SDS011;53956;52.442;13.284;2022-08-21T10:35:07;3.53;;;1.38;;
18125;SDS011;53956;52.442;13.284;2022-08-21T10:37:40;7.60;;;1.88;;
18125;SDS011;53956;52.442;13.284;2022-08-21T10:40:15;6.57;;;1.80;;
18125;SDS011;53956;52.442;13.284;2022-08-21T10:42:52;4.82;;;1.95;;
18125;SDS011;53956;52.442;13.284;2022-08-21T10:45:31;3.58;;;1.25;;
18125;SDS011;53956;52.442;13.284;2022-08-21T10:48:07;8.80;;;1.75;;
18125;SDS011;53956;52.442;13.284;2022-08-21T10:50:52;5.22;;;1.77;;
18125;SDS011;53956;52.442;13.284;2022-08-21T10:53:29;3.95;;;1.30;;
18125;SDS011;53956;52.442;13.284;2022-08-21T10:56:13;4.45;;;1.40;;
18125;SDS011;53956;52.442;13.284;2022-08-21T10:58:46;7.00;;;1.50;;
18125;SDS011;53956;52.442;13.284;2022-08-21T11:01:23;4.65;;;1.40;;
18125;SDS011;53956;52.442;13.284;2022-08-21T11:03:58;5.32;;;1.73;;
18125;SDS011;53956;52.442;13.284;2022-08-21T11:06:36;4.97;;;1.90;;
18125;SDS011;53956;52.442;13.284;2022-08-21T11:09:09;2.78;;;1.35;;
18125;SDS011;53956;52.442;13.284;2022-08-21T11:11:39;8.00;;;1.50;;
18125;SDS011;53956;52.442;13.284;2022-08-21T11:14:16;3.60;;;1.50;;
18125;SDS011;53956;52.442;13.284;2022-08-21T11:16:51;2.72;;;1.30;;
18125;SDS011;53956;52.442;13.284;2022-08-21T11:19:24;3.50;;;1.13;;
18125;SDS011;53956;52.442;13.284;2022-08-21T11:21:58;3.08;;;1.38;;
18125;SDS011;53956;52.442;13.284;2022-08-21T11:24:35;2.22;;;1.20;;
18125;SDS011;53956;52.442;13.284;2022-08-21T11:27:17;3.88;;;1.50;;
18125;SDS011;53956;52.442;13.284;2022-08-21T11:29:49;3.85;;;1.23;;
18125;SDS011;53956;52.442;13.284;2022-08-21T11:32:24;3.05;;;1.30;;
18125;SDS011;53956;52.442;13.284;2022-08-21T11:35:13;4.55;;;1.60;;
18125;SDS011;53956;52.442;13.284;2022-08-21T11:37:56;3.70;;;1.40;;
18125;SDS011;53956;52.442;13.284;2022-08-21T11:40:42;5.07;;;1.55;;
18125;SDS011;53956;52.442;13.284;2022-08-21T11:43:18;5.15;;;2.20;;
18125;SDS011;53956;52.442;13.284;2022-08-21T11:45:55;5.55;;;1.67;;
18125;SDS011;53956;52.442;13.284;2022-08-21T11:48:30;7.03;;;1.60;;
18125;SDS011;53956;52.442;13.284;2022-08-21T11:51:11;4.70;;;1.42;;
18125;SDS011;53956;52.442;13.284;2022-08-21T11:53:44;6.20;;;1.85;;
18125;SDS011;53956;52.442;13.284;2022-08-21T11:56:18;3.72;;;1.50;;
18125;SDS011;53956;52.442;13.284;2022-08-21T11:58:48;4.13;;;1.60;;
18125;SDS011;53956;52.442;13.284;2022-08-21T12:01:19;4.13;;;1.27;;
18125;SDS011;53956;52.442;13.284;2022-08-21T12:03:51;4.82;;;1.63;;
18125;SDS011;53956;52.442;13.284;2022-08-21T12:06:28;6.50;;;1.90;;
18125;SDS011;53956;52.442;13.284;2022-08-21T12:08:59;4.47;;;1.83;;
18125;SDS011;53956;52.442;13.284;2022-08-21T12:11:27;3.85;;;1.63;;
18125;SDS011;53956;52.442;13.284;2022-08-21T12:13:55;3.72;;;1.48;;
18125;SDS011;53956;52.442;13.284;2022-08-21T12:16:28;3.50;;;1.38;;
18125;SDS011;53956;52.442;13.284;2022-08-21T12:19:03;4.75;;;1.75;;
18125;SDS011;53956;52.442;13.284;2022-08-21T12:21:31;2.55;;;1.30;;
18125;SDS011;53956;52.442;13.284;2022-08-21T12:24:02;4.72;;;1.60;;
18125;SDS011;53956;52.442;13.284;2022-08-21T12:26:47;5.93;;;1.63;;
18125;SDS011;53956;52.442;13.284;2022-08-21T12:29:21;5.07;;;1.63;;
18125;SDS011;53956;52.442;13.284;2022-08-21T12:31:52;3.60;;;1.50;;
18125;SDS011;53956;52.442;13.284;2022-08-21T12:34:22;3.97;;;1.48;;
18125;SDS011;53956;52.442;13.284;2022-08-21T12:36:53;3.88;;;1.50;;
18125;SDS011;53956;52.442;13.284;2022-08-21T12:39:24;4.32;;;1.60;;
18125;SDS011;53956;52.442;13.284;2022-08-21T12:42:00;2.70;;;1.70;;
18125;SDS011;53956;52.442;13.284;2022-08-21T12:44:34;6.13;;;1.63;;
18125;SDS011;53956;52.442;13.284;2022-08-21T12:47:13;4.35;;;1.95;;
18125;SDS011;53956;52.442;13.284;2022-08-21T12:49:44;5.32;;;1.58;;
18125;SDS011;53956;52.442;13.284;2022-08-21T12:52:19;4.47;;;1.70;;
18125;SDS011;53956;52.442;13.284;2022-08-21T12:54:49;6.13;;;2.00;;
18125;SDS011;53956;52.442;13.284;2022-08-21T12:57:17;4.88;;;1.55;;
18125;SDS011;53956;52.442;13.284;2022-08-21T12:59:46;2.72;;;1.60;;
18125;SDS011;53956;52.442;13.284;2022-08-21T13:02:19;5.40;;;1.52;;
18125;SDS011;53956;52.442;13.284;2022-08-21T13:04:48;4.50;;;1.80;;
18125;SDS011;53956;52.442;13.284;2022-08-21T13:07:16;5.82;;;1.73;;
18125;SDS011;53956;52.442;13.284;2022-08-21T13:09:52;4.65;;;1.70;;
18125;SDS011;53956;52.442;13.284;2022-08-21T13:12:21;4.35;;;1.95;;
18125;SDS011;53956;52.442;13.284;2022-08-21T13:14:49;6.53;;;2.00;;
18125;SDS011;53956;52.442;13.284;2022-08-21T13:17:17;8.30;;;2.17;;
18125;SDS011;53956;52.442;13.284;2022-08-21T13:19:52;7.13;;;1.80;;
18125;SDS011;53956;52.442;13.284;2022-08-21T13:22:23;5.40;;;1.98;;
18125;SDS011;53956;52.442;13.284;2022-08-21T13:24:52;5.82;;;2.10;;
18125;SDS011;53956;52.442;13.284;2022-08-21T13:27:21;6.32;;;1.90;;
18125;SDS011;53956;52.442;13.284;2022-08-21T13:30:05;3.75;;;1.80;;
18125;SDS011;53956;52.442;13.284;2022-08-21T13:32:34;3.20;;;1.80;;
18125;SDS011;53956;52.442;13.284;2022-08-21T13:35:10;4.78;;;1.83;;
18125;SDS011;53956;52.442;13.284;2022-08-21T13:37:41;5.25;;;2.13;;
18125;SDS011;53956;52.442;13.284;2022-08-21T13:40:11;4.88;;;1.90;;
18125;SDS011;53956;52.442;13.284;2022-08-21T13:42:41;5.55;;;2.20;;
18125;SDS011;53956;52.442;13.284;2022-08-21T13:45:11;4.90;;;2.08;;
18125;SDS011;53956;52.442;13.284;2022-08-21T13:47:40;5.95;;;2.05;;
18125;SDS011;53956;52.442;13.284;2022-08-21T13:50:07;6.80;;;2.40;;
18125;SDS011;53956;52.442;13.284;2022-08-21T13:52:44;7.57;;;1.98;;
18125;SDS011;53956;52.442;13.284;2022-08-21T13:55:16;4.50;;;2.17;;
18125;SDS011;53956;52.442;13.284;2022-08-21T13:57:43;7.38;;;2.30;;
18125;SDS011;53956;52.442;13.284;2022-08-21T14:00:11;8.13;;;2.50;;
18125;SDS011;53956;52.442;13.284;2022-08-21T14:02:40;7.57;;;2.10;;
18125;SDS011;53956;52.442;13.284;2022-08-21T14:05:14;7.35;;;2.13;;
18125;SDS011;53956;52.442;13.284;2022-08-21T14:07:42;7.03;;;2.50;;
18125;SDS011;53956;52.442;13.284;2022-08-21T14:10:11;5.22;;;2.40;;
18125;SDS011;53956;52.442;13.284;2022-08-21T14:12:43;5.43;;;2.47;;
18125;SDS011;53956;52.442;13.284;2022-08-21T14:15:14;7.50;;;2.28;;
18125;SDS011;53956;52.442;13.284;2022-08-21T14:17:42;5.05;;;2.30;;
18125;SDS011;53956;52.442;13.284;2022-08-21T14:20:10;5.57;;;2.30;;
18125;SDS011;53956;52.442;13.284;2022-08-21T14:22:40;7.38;;;2.38;;
18125;SDS011;53956;52.442;13.284;2022-08-21T14:25:10;4.50;;;2.13;;
18125;SDS011;53956;52.442;13.284;2022-08-21T14:27:40;7.05;;;2.25;;
18125;SDS011;53956;52.442;13.284;2022-08-21T14:30:16;5.43;;;2.30;;
18125;SDS011;53956;52.442;13.284;2022-08-21T14:32:45;7.18;;;2.42;;
18125;SDS011;53956;52.442;13.284;2022-08-21T14:35:13;4.50;;;1.92;;
18125;SDS011;53956;52.442;13.284;2022-08-21T14:37:42;5.85;;;2.30;;
18125;SDS011;53956;52.442;13.284;2022-08-21T14:40:10;5.50;;;2.10;;
18125;SDS011;53956;52.442;13.284;2022-08-21T14:42:39;9.07;;;2.33;;
18125;SDS011;53956;52.442;13.284;2022-08-21T14:45:10;6.32;;;2.30;;
18125;SDS011;53956;52.442;13.284;2022-08-21T14:47:40;9.25;;;3.35;;